sensor_id;sensor_type;location;lat;lon;timestamp;pressure;altitude;pressure_sealevel;temperature;humidity
14612;BME280;7392;52.078;11.650;2023-11-19T00:00:17;100555.44;;;4.40;100.00
14612;BME280;7392;52.078;11.650;2023-11-19T00:02:45;100532.59;;;4.38;100.00
14612;BME280;7392;52.078;11.650;2023-11-19T00:05:14;100529.13;;;4.40;100.00
14612;BME280;7392;52.078;11.650;2023-11-19T00:07:42;100521.28;;;4.42;100.00
14612;BME280;7392;52.078;11.650;2023-11-19T00:10:11;100508.16;;;4.43;100.00
14612;BME280;7392;52.078;11.650;2023-11-19T00:12:41;100505.47;;;4.40;100.00
14612;BME280;7392;52.078;11.650;2023-11-19T00:15:12;100499.22;;;4.35;100.00
14612;BME280;7392;52.078;11.650;2023-11-19T00:17:41;100496.59;;;4.35;100.00
14612;BME280;7392;52.078;11.650;2023-11-19T00:20:11;100481.72;;;4.36;100.00
14612;BME280;7392;52.078;11.650;2023-11-19T00:22:40;100477.31;;;4.35;100.00
14612;BME280;7392;52.078;11.650;2023-11-19T00:25:10;100479.13;;;4.39;100.00
14612;BME280;7392;52.078;11.650;2023-11-19T00:27:38;100461.56;;;4.36;100.00
14612;BME280;7392;52.078;11.650;2023-11-19T00:30:07;100451.03;;;4.35;100.00
14612;BME280;7392;52.078;11.650;2023-11-19T00:32:36;100451.00;;;4.33;100.00
14612;BME280;7392;52.078;11.650;2023-11-19T00:35:06;100436.16;;;4.37;100.00
14612;BME280;7392;52.078;11.650;2023-11-19T00:37:36;100447.56;;;4.39;100.00
14612;BME280;7392;52.078;11.650;2023-11-19T00:40:05;100425.66;;;4.38;100.00
14612;BME280;7392;52.078;11.650;2023-11-19T00:42:33;100423.88;;;4.36;100.00
14612;BME280;7392;52.078;11.650;2023-11-19T00:45:01;100419.44;;;4.33;100.00
14612;BME280;7392;52.078;11.650;2023-11-19T00:47:28;100416.81;;;4.33;100.00
14612;BME280;7392;52.078;11.650;2023-11-19T00:49:59;100404.53;;;4.34;100.00
14612;BME280;7392;52.078;11.650;2023-11-19T00:52:26;100410.75;;;4.39;100.00
14612;BME280;7392;52.078;11.650;2023-11-19T00:54:53;100398.53;;;4.39;100.00
14612;BME280;7392;52.078;11.650;2023-11-19T00:57:21;100399.31;;;4.35;100.00
14612;BME280;7392;52.078;11.650;2023-11-19T00:59:51;100401.97;;;4.37;100.00
14612;BME280;7392;52.078;11.650;2023-11-19T01:02:19;100388.78;;;4.35;100.00
14612;BME280;7392;52.078;11.650;2023-11-19T01:04:47;100373.09;;;4.40;100.00
14612;BME280;7392;52.078;11.650;2023-11-19T01:07:16;100360.78;;;4.39;100.00
14612;BME280;7392;52.078;11.650;2023-11-19T01:09:44;100352.94;;;4.40;100.00
14612;BME280;7392;52.078;11.650;2023-11-19T01:12:11;100356.47;;;4.41;100.00
14612;BME280;7392;52.078;11.650;2023-11-19T01:14:39;100359.00;;;4.36;100.00
14612;BME280;7392;52.078;11.650;2023-11-19T01:17:07;100364.34;;;4.39;100.00
14612;BME280;7392;52.078;11.650;2023-11-19T01:19:36;100349.38;;;4.37;100.00
14612;BME280;7392;52.078;11.650;2023-11-19T01:22:04;100352.03;;;4.38;100.00
14612;BME280;7392;52.078;11.650;2023-11-19T01:24:34;100342.34;;;4.36;100.00
14612;BME280;7392;52.078;11.650;2023-11-19T01:27:02;100331.84;;;4.37;100.00
14612;BME280;7392;52.078;11.650;2023-11-19T01:29:29;100314.34;;;4.38;100.00
14612;BME280;7392;52.078;11.650;2023-11-19T01:31:57;100309.88;;;4.34;100.00
14612;BME280;7392;52.078;11.650;2023-11-19T01:34:25;100306.38;;;4.33;100.00
14612;BME280;7392;52.078;11.650;2023-11-19T01:36:52;100304.59;;;4.32;100.00
14612;BME280;7392;52.078;11.650;2023-11-19T01:39:20;100317.78;;;4.35;100.00
14612;BME280;7392;52.078;11.650;2023-11-19T01:41:49;100316.94;;;4.36;100.00
14612;BME280;7392;52.078;11.650;2023-11-19T01:44:17;100316.06;;;4.37;100.00
14612;BME280;7392;52.078;11.650;2023-11-19T01:46:46;100295.91;;;4.36;100.00
14612;BME280;7392;52.078;11.650;2023-11-19T01:49:15;100285.34;;;4.35;100.00
14612;BME280;7392;52.078;11.650;2023-11-19T01:51:45;100265.16;;;4.34;100.00
14612;BME280;7392;52.078;11.650;2023-11-19T01:54:14;100254.63;;;4.32;100.00
14612;BME280;7392;52.078;11.650;2023-11-19T01:56:43;100246.75;;;4.30;100.00
14612;BME280;7392;52.078;11.650;2023-11-19T01:59:13;100245.06;;;4.36;100.00
14612;BME280;7392;52.078;11.650;2023-11-19T02:01:42;100245.03;;;4.34;100.00
14612;BME280;7392;52.078;11.650;2023-11-19T02:04:11;100236.28;;;4.35;100.00
14612;BME280;7392;52.078;11.650;2023-11-19T02:06:41;100228.38;;;4.35;100.00
14612;BME280;7392;52.078;11.650;2023-11-19T02:09:10;100210.88;;;4.37;100.00
14612;BME280;7392;52.078;11.650;2023-11-19T02:11:39;100216.16;;;4.39;100.00
14612;BME280;7392;52.078;11.650;2023-11-19T02:14:07;100185.50;;;4.38;100.00
14612;BME280;7392;52.078;11.650;2023-11-19T02:16:36;100175.88;;;4.40;100.00
14612;BME280;7392;52.078;11.650;2023-11-19T02:19:05;100181.13;;;4.40;100.00
14612;BME280;7392;52.078;11.650;2023-11-19T02:21:33;100186.34;;;4.37;100.00
14612;BME280;7392;52.078;11.650;2023-11-19T02:24:03;100187.22;;;4.39;100.00
14612;BME280;7392;52.078;11.650;2023-11-19T02:26:39;100176.69;;;4.37;100.00
14612;BME280;7392;52.078;11.650;2023-11-19T02:29:08;100194.19;;;4.34;100.00
14612;BME280;7392;52.078;11.650;2023-11-19T02:31:37;100162.66;;;4.35;100.00
14612;BME280;7392;52.078;11.650;2023-11-19T02:34:04;100165.28;;;4.35;100.00
14612;BME280;7392;52.078;11.650;2023-11-19T02:36:32;100153.00;;;4.34;100.00
14612;BME280;7392;52.078;11.650;2023-11-19T02:39:00;100156.56;;;4.38;100.00
14612;BME280;7392;52.078;11.650;2023-11-19T02:41:28;100135.56;;;4.42;100.00
14612;BME280;7392;52.078;11.650;2023-11-19T02:43:56;100139.13;;;4.44;100.00
14612;BME280;7392;52.078;11.650;2023-11-19T02:46:26;100130.38;;;4.47;100.00
14612;BME280;7392;52.078;11.650;2023-11-19T02:48:53;100130.34;;;4.44;100.00
14612;BME280;7392;52.078;11.650;2023-11-19T02:51:23;100106.66;;;4.44;100.00
14612;BME280;7392;52.078;11.650;2023-11-19T02:53:50;100109.28;;;4.44;100.00
14612;BME280;7392;52.078;11.650;2023-11-19T02:56:19;100104.88;;;4.41;100.00
14612;BME280;7392;52.078;11.650;2023-11-19T02:58:52;100096.16;;;4.44;100.00
14612;BME280;7392;52.078;11.650;2023-11-19T03:01:25;100096.13;;;4.42;100.00
14612;BME280;7392;52.078;11.650;2023-11-19T03:03:58;100080.41;;;4.47;100.00
14612;BME280;7392;52.078;11.650;2023-11-19T03:06:28;100068.13;;;4.44;100.00
14612;BME280;7392;52.078;11.650;2023-11-19T03:08:57;100067.22;;;4.44;100.00
14612;BME280;7392;52.078;11.650;2023-11-19T03:11:24;100075.09;;;4.44;100.00
14612;BME280;7392;52.078;11.650;2023-11-19T03:13:52;100078.63;;;4.44;100.00
14612;BME280;7392;52.078;11.650;2023-11-19T03:16:20;100099.63;;;4.41;100.00
14612;BME280;7392;52.078;11.650;2023-11-19T03:18:49;100100.53;;;4.43;100.00
14612;BME280;7392;52.078;11.650;2023-11-19T03:21:16;100090.84;;;4.39;100.00
14612;BME280;7392;52.078;11.650;2023-11-19T03:23:44;100102.22;;;4.38;100.00
14612;BME280;7392;52.078;11.650;2023-11-19T03:26:12;100094.31;;;4.37;100.00
14612;BME280;7392;52.078;11.650;2023-11-19T03:28:40;100073.25;;;4.35;100.00
14612;BME280;7392;52.078;11.650;2023-11-19T03:31:07;100060.13;;;4.37;100.00
14612;BME280;7392;52.078;11.650;2023-11-19T03:33:35;100044.38;;;4.38;100.00
14612;BME280;7392;52.078;11.650;2023-11-19T03:36:06;100046.16;;;4.42;100.00
14612;BME280;7392;52.078;11.650;2023-11-19T03:38:35;100047.94;;;4.43;100.00
14612;BME280;7392;52.078;11.650;2023-11-19T03:41:10;100040.94;;;4.45;100.00
14612;BME280;7392;52.078;11.650;2023-11-19T03:43:38;100027.84;;;4.50;100.00
14612;BME280;7392;52.078;11.650;2023-11-19T03:46:16;100007.81;;;4.60;100.00
14612;BME280;7392;52.078;11.650;2023-11-19T03:48:44;99996.38;;;4.59;100.00
14612;BME280;7392;52.078;11.650;2023-11-19T03:51:14;99975.38;;;4.64;100.00
14612;BME280;7392;52.078;11.650;2023-11-19T03:53:42;99984.16;;;4.61;100.00
14612;BME280;7392;52.078;11.650;2023-11-19T03:56:10;99976.22;;;4.58;100.00
14612;BME280;7392;52.078;11.650;2023-11-19T03:58:38;99965.72;;;4.60;100.00
14612;BME280;7392;52.078;11.650;2023-11-19T04:01:10;99963.13;;;4.63;100.00
14612;BME280;7392;52.078;11.650;2023-11-19T04:03:39;99958.72;;;4.62;100.00
14612;BME280;7392;52.078;11.650;2023-11-19T04:06:18;99960.50;;;4.63;100.00
14612;BME280;7392;52.078;11.650;2023-11-19T04:08:46;99965.75;;;4.64;100.00
14612;BME280;7392;52.078;11.650;2023-11-19T04:11:14;99950.88;;;4.66;100.00
14612;BME280;7392;52.078;11.650;2023-11-19T04:13:41;99951.75;;;4.68;100.00
14612;BME280;7392;52.078;11.650;2023-11-19T04:16:10;99943.88;;;4.70;100.00
14612;BME280;7392;52.078;11.650;2023-11-19T04:18:38;99941.28;;;4.72;100.00
14612;BME280;7392;52.078;11.650;2023-11-19T04:21:06;99927.25;;;4.73;100.00
14612;BME280;7392;52.078;11.650;2023-11-19T04:23:35;99934.28;;;4.75;100.00
14612;BME280;7392;52.078;11.650;2023-11-19T04:26:04;99939.56;;;4.77;100.00
14612;BME280;7392;52.078;11.650;2023-11-19T04:28:36;99926.41;;;4.80;100.00
14612;BME280;7392;52.078;11.650;2023-11-19T04:31:04;99922.97;;;4.84;100.00
14612;BME280;7392;52.078;11.650;2023-11-19T04:33:33;99938.78;;;4.89;100.00
14612;BME280;7392;52.078;11.650;2023-11-19T04:36:00;99944.97;;;4.92;100.00
14612;BME280;7392;52.078;11.650;2023-11-19T04:38:29;99931.81;;;4.97;100.00
14612;BME280;7392;52.078;11.650;2023-11-19T04:40:58;99937.13;;;5.01;100.00
14612;BME280;7392;52.078;11.650;2023-11-19T04:43:26;99909.94;;;5.05;100.00
14612;BME280;7392;52.078;11.650;2023-11-19T04:45:54;99920.47;;;5.07;100.00
14612;BME280;7392;52.078;11.650;2023-11-19T04:48:22;99912.59;;;5.09;100.00
14612;BME280;7392;52.078;11.650;2023-11-19T04:50:49;99908.22;;;5.12;100.00
14612;BME280;7392;52.078;11.650;2023-11-19T04:53:19;99913.53;;;5.15;100.00
14612;BME280;7392;52.078;11.650;2023-11-19T04:55:47;99901.25;;;5.19;100.00
14612;BME280;7392;52.078;11.650;2023-11-19T04:58:16;99907.41;;;5.21;100.00
14612;BME280;7392;52.078;11.650;2023-11-19T05:00:44;99903.94;;;5.23;100.00
14612;BME280;7392;52.078;11.650;2023-11-19T05:03:12;99900.44;;;5.28;100.00
14612;BME280;7392;52.078;11.650;2023-11-19T05:05:39;99900.47;;;5.32;100.00
14612;BME280;7392;52.078;11.650;2023-11-19T05:08:07;99904.91;;;5.36;100.00
14612;BME280;7392;52.078;11.650;2023-11-19T05:10:35;99895.28;;;5.41;100.00
14612;BME280;7392;52.078;11.650;2023-11-19T05:13:03;99878.59;;;5.46;100.00
14612;BME280;7392;52.078;11.650;2023-11-19T05:15:32;99893.56;;;5.53;100.00
14612;BME280;7392;52.078;11.650;2023-11-19T05:18:00;99888.31;;;5.57;100.00
14612;BME280;7392;52.078;11.650;2023-11-19T05:20:28;99883.09;;;5.62;100.00
14612;BME280;7392;52.078;11.650;2023-11-19T05:22:56;99891.88;;;5.67;100.00
14612;BME280;7392;52.078;11.650;2023-11-19T05:25:26;99888.38;;;5.71;100.00
14612;BME280;7392;52.078;11.650;2023-11-19T05:27:54;99888.41;;;5.76;100.00
14612;BME280;7392;52.078;11.650;2023-11-19T05:30:22;99894.56;;;5.79;100.00
14612;BME280;7392;52.078;11.650;2023-11-19T05:32:51;99877.88;;;5.84;100.00
14612;BME280;7392;52.078;11.650;2023-11-19T05:35:19;99884.03;;;5.86;100.00
14612;BME280;7392;52.078;11.650;2023-11-19T05:37:47;99877.00;;;5.89;100.00
14612;BME280;7392;52.078;11.650;2023-11-19T05:40:17;99882.28;;;5.94;100.00
14612;BME280;7392;52.078;11.650;2023-11-19T05:42:47;99873.59;;;5.99;100.00
14612;BME280;7392;52.078;11.650;2023-11-19T05:45:14;99863.94;;;6.03;100.00
14612;BME280;7392;52.078;11.650;2023-11-19T05:47:42;99871.81;;;6.08;100.00
14612;BME280;7392;52.078;11.650;2023-11-19T05:50:12;99874.47;;;6.12;100.00
14612;BME280;7392;52.078;11.650;2023-11-19T05:52:41;99866.56;;;6.22;100.00
14612;BME280;7392;52.078;11.650;2023-11-19T05:55:08;99877.16;;;6.32;100.00
14612;BME280;7392;52.078;11.650;2023-11-19T05:57:37;99881.56;;;6.41;100.00
14612;BME280;7392;52.078;11.650;2023-11-19T06:00:10;99877.16;;;6.52;100.00
14612;BME280;7392;52.078;11.650;2023-11-19T06:02:40;99861.34;;;6.62;100.00
14612;BME280;7392;52.078;11.650;2023-11-19T06:05:07;99868.38;;;6.72;100.00
14612;BME280;7392;52.078;11.650;2023-11-19T06:07:38;99862.22;;;6.79;100.00
14612;BME280;7392;52.078;11.650;2023-11-19T06:10:08;99852.53;;;6.86;100.00
14612;BME280;7392;52.078;11.650;2023-11-19T06:12:37;99853.41;;;6.91;100.00
14612;BME280;7392;52.078;11.650;2023-11-19T06:15:08;99863.06;;;6.97;100.00
14612;BME280;7392;52.078;11.650;2023-11-19T06:17:36;99856.91;;;7.02;100.00
14612;BME280;7392;52.078;11.650;2023-11-19T06:20:05;99855.16;;;7.07;100.00
14612;BME280;7392;52.078;11.650;2023-11-19T06:22:34;99848.97;;;7.11;100.00
14612;BME280;7392;52.078;11.650;2023-11-19T06:25:05;99848.06;;;7.17;100.00
14612;BME280;7392;52.078;11.650;2023-11-19T06:27:34;99857.75;;;7.18;100.00
14612;BME280;7392;52.078;11.650;2023-11-19T06:30:02;99858.63;;;7.19;100.00
14612;BME280;7392;52.078;11.650;2023-11-19T06:32:30;99863.91;;;7.22;100.00
14612;BME280;7392;52.078;11.650;2023-11-19T06:34:59;99866.53;;;7.23;100.00
14612;BME280;7392;52.078;11.650;2023-11-19T06:37:27;99870.06;;;7.24;100.00
14612;BME280;7392;52.078;11.650;2023-11-19T06:39:55;99863.00;;;7.27;100.00
14612;BME280;7392;52.078;11.650;2023-11-19T06:42:24;99851.56;;;7.27;100.00
14612;BME280;7392;52.078;11.650;2023-11-19T06:44:52;99848.91;;;7.28;100.00
14612;BME280;7392;52.078;11.650;2023-11-19T06:47:20;99841.00;;;7.28;100.00
14612;BME280;7392;52.078;11.650;2023-11-19T06:49:48;99850.69;;;7.26;100.00
14612;BME280;7392;52.078;11.650;2023-11-19T06:52:16;99865.66;;;7.26;100.00
14612;BME280;7392;52.078;11.650;2023-11-19T06:54:44;99865.66;;;7.24;100.00
14612;BME280;7392;52.078;11.650;2023-11-19T06:57:13;99866.53;;;7.25;100.00
14612;BME280;7392;52.078;11.650;2023-11-19T06:59:42;99861.25;;;7.25;100.00
14612;BME280;7392;52.078;11.650;2023-11-19T07:02:10;99855.97;;;7.25;100.00
14612;BME280;7392;52.078;11.650;2023-11-19T07:04:40;99849.81;;;7.26;100.00
14612;BME280;7392;52.078;11.650;2023-11-19T07:07:08;99863.91;;;7.25;100.00
14612;BME280;7392;52.078;11.650;2023-11-19T07:09:36;99856.84;;;7.24;100.00
14612;BME280;7392;52.078;11.650;2023-11-19T07:12:05;99878.88;;;7.26;100.00
14612;BME280;7392;52.078;11.650;2023-11-19T07:14:33;99884.13;;;7.27;100.00
14612;BME280;7392;52.078;11.650;2023-11-19T07:17:02;99884.13;;;7.29;100.00
14612;BME280;7392;52.078;11.650;2023-11-19T07:19:30;99884.13;;;7.32;100.00
14612;BME280;7392;52.078;11.650;2023-11-19T07:21:58;99884.13;;;7.34;100.00
14612;BME280;7392;52.078;11.650;2023-11-19T07:24:25;99885.00;;;7.37;100.00
14612;BME280;7392;52.078;11.650;2023-11-19T07:26:55;99885.88;;;7.39;100.00
14612;BME280;7392;52.078;11.650;2023-11-19T07:29:23;99892.91;;;7.45;100.00
14612;BME280;7392;52.078;11.650;2023-11-19T07:31:53;99882.34;;;7.46;100.00
14612;BME280;7392;52.078;11.650;2023-11-19T07:34:24;99886.72;;;7.52;100.00
14612;BME280;7392;52.078;11.650;2023-11-19T07:36:52;99892.00;;;7.54;100.00
14612;BME280;7392;52.078;11.650;2023-11-19T07:39:19;99889.31;;;7.58;100.00
14612;BME280;7392;52.078;11.650;2023-11-19T07:41:48;99893.72;;;7.62;100.00
14612;BME280;7392;52.078;11.650;2023-11-19T07:44:16;99905.16;;;7.69;100.00
14612;BME280;7392;52.078;11.650;2023-11-19T07:46:44;99901.59;;;7.75;100.00
14612;BME280;7392;52.078;11.650;2023-11-19T07:49:12;99909.53;;;7.79;100.00
14612;BME280;7392;52.078;11.650;2023-11-19T07:51:41;99912.16;;;7.82;100.00
14612;BME280;7392;52.078;11.650;2023-11-19T07:54:09;99912.13;;;7.87;100.00
14612;BME280;7392;52.078;11.650;2023-11-19T07:56:37;99910.34;;;7.92;100.00
14612;BME280;7392;52.078;11.650;2023-11-19T07:59:05;99914.75;;;7.95;100.00
14612;BME280;7392;52.078;11.650;2023-11-19T08:01:33;99919.13;;;8.02;100.00
14612;BME280;7392;52.078;11.650;2023-11-19T08:04:01;99919.09;;;8.10;100.00
14612;BME280;7392;52.078;11.650;2023-11-19T08:06:29;99924.31;;;8.19;100.00
14612;BME280;7392;52.078;11.650;2023-11-19T08:08:59;99922.53;;;8.27;100.00
14612;BME280;7392;52.078;11.650;2023-11-19T08:11:26;99927.75;;;8.35;100.00
14612;BME280;7392;52.078;11.650;2023-11-19T08:13:54;99917.13;;;8.41;100.00
14612;BME280;7392;52.078;11.650;2023-11-19T08:16:22;99924.19;;;8.47;100.00
14612;BME280;7392;52.078;11.650;2023-11-19T08:18:50;99920.59;;;8.52;100.00
14612;BME280;7392;52.078;11.650;2023-11-19T08:21:18;99923.22;;;8.57;100.00
14612;BME280;7392;52.078;11.650;2023-11-19T08:23:46;99934.66;;;8.62;100.00
14612;BME280;7392;52.078;11.650;2023-11-19T08:26:16;99933.78;;;8.68;100.00
14612;BME280;7392;52.078;11.650;2023-11-19T08:28:47;99925.78;;;8.69;100.00
14612;BME280;7392;52.078;11.650;2023-11-19T08:31:15;99927.53;;;8.75;100.00
14612;BME280;7392;52.078;11.650;2023-11-19T08:33:43;99923.97;;;8.77;100.00
14612;BME280;7392;52.078;11.650;2023-11-19T08:36:15;99920.41;;;8.83;100.00
14612;BME280;7392;52.078;11.650;2023-11-19T08:38:43;99923.84;;;8.90;100.00
14612;BME280;7392;52.078;11.650;2023-11-19T08:41:11;99914.09;;;8.96;100.00
14612;BME280;7392;52.078;11.650;2023-11-19T08:43:40;99918.47;;;9.02;100.00
14612;BME280;7392;52.078;11.650;2023-11-19T08:46:11;99916.66;;;9.09;100.00
14612;BME280;7392;52.078;11.650;2023-11-19T08:48:39;99921.84;;;9.18;100.00
14612;BME280;7392;52.078;11.650;2023-11-19T08:51:07;99934.16;;;9.22;100.00
14612;BME280;7392;52.078;11.650;2023-11-19T08:53:35;99920.88;;;9.30;100.00
14612;BME280;7392;52.078;11.650;2023-11-19T08:56:03;99933.13;;;9.40;100.00
14612;BME280;7392;52.078;11.650;2023-11-19T08:58:31;99931.25;;;9.50;100.00
14612;BME280;7392;52.078;11.650;2023-11-19T09:01:01;99935.50;;;9.63;100.00
14612;BME280;7392;52.078;11.650;2023-11-19T09:03:31;99940.63;;;9.79;100.00
14612;BME280;7392;52.078;11.650;2023-11-19T09:06:00;99944.88;;;9.95;100.00
14612;BME280;7392;52.078;11.650;2023-11-19T09:08:28;99949.13;;;10.08;100.00
14612;BME280;7392;52.078;11.650;2023-11-19T09:10:56;99938.41;;;10.16;100.00
14612;BME280;7392;52.078;11.650;2023-11-19T09:13:24;99943.69;;;10.18;100.00
14612;BME280;7392;52.078;11.650;2023-11-19T09:15:51;99947.16;;;10.23;100.00
14612;BME280;7392;52.078;11.650;2023-11-19T09:18:21;99944.44;;;10.32;100.00
14612;BME280;7392;52.078;11.650;2023-11-19T09:20:49;99938.97;;;10.43;100.00
14612;BME280;7392;52.078;11.650;2023-11-19T09:23:17;99939.72;;;10.54;100.00
14612;BME280;7392;52.078;11.650;2023-11-19T09:25:45;99939.53;;;10.65;100.00
14612;BME280;7392;52.078;11.650;2023-11-19T09:28:13;99933.19;;;10.74;100.00
14612;BME280;7392;52.078;11.650;2023-11-19T09:30:41;99935.66;;;10.86;100.00
14612;BME280;7392;52.078;11.650;2023-11-19T09:33:10;99946.28;;;10.86;100.00
14612;BME280;7392;52.078;11.650;2023-11-19T09:35:39;99947.22;;;10.85;100.00
14612;BME280;7392;52.078;11.650;2023-11-19T09:38:07;99950.72;;;10.85;100.00
14612;BME280;7392;52.078;11.650;2023-11-19T09:40:35;99953.38;;;10.87;100.00
14612;BME280;7392;52.078;11.650;2023-11-19T09:43:05;99955.19;;;10.83;100.00
14612;BME280;7392;52.078;11.650;2023-11-19T09:45:47;99956.09;;;10.81;100.00
14612;BME280;7392;52.078;11.650;2023-11-19T09:48:17;99965.00;;;10.78;100.00
14612;BME280;7392;52.078;11.650;2023-11-19T09:50:48;99963.25;;;10.77;100.00
14612;BME280;7392;52.078;11.650;2023-11-19T09:53:16;99965.91;;;10.77;100.00
14612;BME280;7392;52.078;11.650;2023-11-19T09:55:44;99959.69;;;10.78;100.00
14612;BME280;7392;52.078;11.650;2023-11-19T09:58:14;99958.84;;;10.76;100.00
14612;BME280;7392;52.078;11.650;2023-11-19T10:00:42;99956.19;;;10.78;100.00
14612;BME280;7392;52.078;11.650;2023-11-19T10:03:22;99962.34;;;10.80;100.00
14612;BME280;7392;52.078;11.650;2023-11-19T10:05:52;99949.03;;;10.81;100.00
14612;BME280;7392;52.078;11.650;2023-11-19T10:08:20;99951.66;;;10.83;100.00
14612;BME280;7392;52.078;11.650;2023-11-19T10:10:49;99957.78;;;10.88;100.00
14612;BME280;7392;52.078;11.650;2023-11-19T10:13:18;99950.69;;;10.89;100.00
14612;BME280;7392;52.078;11.650;2023-11-19T10:15:47;99957.69;;;10.93;100.00
14612;BME280;7392;52.078;11.650;2023-11-19T10:18:16;99962.97;;;10.94;100.00
14612;BME280;7392;52.078;11.650;2023-11-19T10:20:43;99954.13;;;10.95;100.00
14612;BME280;7392;52.078;11.650;2023-11-19T10:23:14;99949.66;;;10.97;100.00
14612;BME280;7392;52.078;11.650;2023-11-19T10:25:42;99945.22;;;10.98;100.00
14612;BME280;7392;52.078;11.650;2023-11-19T10:28:09;99945.19;;;10.99;100.00
14612;BME280;7392;52.078;11.650;2023-11-19T10:30:37;99966.44;;;10.99;100.00
14612;BME280;7392;52.078;11.650;2023-11-19T10:33:06;99960.25;;;11.00;100.00
14612;BME280;7392;52.078;11.650;2023-11-19T10:35:36;99961.97;;;11.01;100.00
14612;BME280;7392;52.078;11.650;2023-11-19T10:38:14;99962.81;;;11.05;100.00
14612;BME280;7392;52.078;11.650;2023-11-19T10:40:43;99959.25;;;11.06;100.00
14612;BME280;7392;52.078;11.650;2023-11-19T10:43:11;99960.06;;;11.10;100.00
14612;BME280;7392;52.078;11.650;2023-11-19T10:45:40;99951.19;;;11.12;100.00
14612;BME280;7392;52.078;11.650;2023-11-19T10:48:08;99947.59;;;11.13;100.00
14612;BME280;7392;52.078;11.650;2023-11-19T10:50:37;99947.59;;;11.13;100.00
14612;BME280;7392;52.078;11.650;2023-11-19T10:53:07;99946.72;;;11.14;100.00
14612;BME280;7392;52.078;11.650;2023-11-19T10:55:37;99952.84;;;11.19;100.00
14612;BME280;7392;52.078;11.650;2023-11-19T10:58:07;99956.13;;;11.32;100.00
14612;BME280;7392;52.078;11.650;2023-11-19T11:00:38;99950.53;;;11.49;100.00
14612;BME280;7392;52.078;11.650;2023-11-19T11:03:10;99956.53;;;11.60;100.00
14612;BME280;7392;52.078;11.650;2023-11-19T11:05:40;99958.91;;;11.74;100.00
14612;BME280;7392;52.078;11.650;2023-11-19T11:08:08;99955.13;;;11.88;100.00
14612;BME280;7392;52.078;11.650;2023-11-19T11:10:43;99949.59;;;11.98;100.00
14612;BME280;7392;52.078;11.650;2023-11-19T11:13:18;99953.88;;;12.06;100.00
14612;BME280;7392;52.078;11.650;2023-11-19T11:15:46;99951.97;;;12.12;100.00
14612;BME280;7392;52.078;11.650;2023-11-19T11:18:14;99954.50;;;12.19;100.00
14612;BME280;7392;52.078;11.650;2023-11-19T11:20:44;99948.91;;;12.31;100.00
14612;BME280;7392;52.078;11.650;2023-11-19T11:23:42;99953.09;;;12.43;100.00
14612;BME280;7392;52.078;11.650;2023-11-19T11:26:29;99946.66;;;12.53;100.00
14612;BME280;7392;52.078;11.650;2023-11-19T11:29:03;99952.63;;;12.64;100.00
14612;BME280;7392;52.078;11.650;2023-11-19T11:31:38;99960.25;;;12.80;100.00
14612;BME280;7392;52.078;11.650;2023-11-19T11:34:27;99959.88;;;12.95;100.00
14612;BME280;7392;52.078;11.650;2023-11-19T11:37:09;99963.06;;;13.09;99.06
14612;BME280;7392;52.078;11.650;2023-11-19T11:39:40;99968.16;;;13.20;97.98
14612;BME280;7392;52.078;11.650;2023-11-19T11:42:33;99958.16;;;13.28;96.45
14612;BME280;7392;52.078;11.650;2023-11-19T11:45:03;99962.66;;;13.26;94.63
14612;BME280;7392;52.078;11.650;2023-11-19T11:50:51;99959.63;;;13.42;94.45
14612;BME280;7392;52.078;11.650;2023-11-19T11:53:20;99959.41;;;13.51;92.59
14612;BME280;7392;52.078;11.650;2023-11-19T11:55:58;99943.13;;;13.60;93.72
14612;BME280;7392;52.078;11.650;2023-11-19T11:58:36;99942.03;;;13.68;93.74
14612;BME280;7392;52.078;11.650;2023-11-19T12:01:05;99946.47;;;13.69;91.34
14612;BME280;7392;52.078;11.650;2023-11-19T12:03:33;99942.22;;;13.61;90.57
14612;BME280;7392;52.078;11.650;2023-11-19T12:06:00;99943.84;;;13.67;91.68
14612;BME280;7392;52.078;11.650;2023-11-19T12:08:30;99948.91;;;13.76;88.47
14612;BME280;7392;52.078;11.650;2023-11-19T12:10:58;99940.75;;;13.82;89.00
14612;BME280;7392;52.078;11.650;2023-11-19T12:13:47;99940.59;;;13.89;87.19
14612;BME280;7392;52.078;11.650;2023-11-19T12:16:15;99946.72;;;13.92;87.29
14612;BME280;7392;52.078;11.650;2023-11-19T12:18:43;99943.88;;;13.97;86.70
14612;BME280;7392;52.078;11.650;2023-11-19T12:21:11;99934.00;;;14.00;86.24
14612;BME280;7392;52.078;11.650;2023-11-19T12:23:45;99934.81;;;14.04;86.29
14612;BME280;7392;52.078;11.650;2023-11-19T12:26:34;99937.22;;;14.12;87.08
14612;BME280;7392;52.078;11.650;2023-11-19T12:29:03;99942.41;;;14.18;86.02
14612;BME280;7392;52.078;11.650;2023-11-19T12:31:35;99944.00;;;14.24;85.67
14612;BME280;7392;52.078;11.650;2023-11-19T12:34:07;99950.03;;;14.30;86.10
14612;BME280;7392;52.078;11.650;2023-11-19T12:36:40;99935.75;;;14.31;85.28
14612;BME280;7392;52.078;11.650;2023-11-19T12:39:09;99933.88;;;14.35;85.48
14612;BME280;7392;52.078;11.650;2023-11-19T12:41:49;99932.84;;;14.39;85.41
14612;BME280;7392;52.078;11.650;2023-11-19T12:44:19;99948.97;;;14.36;85.09
14612;BME280;7392;52.078;11.650;2023-11-19T12:46:59;99947.53;;;14.24;84.03
14612;BME280;7392;52.078;11.650;2023-11-19T12:49:27;99946.03;;;14.15;84.24
14612;BME280;7392;52.078;11.650;2023-11-19T12:51:55;99951.75;;;14.01;84.73
14612;BME280;7392;52.078;11.650;2023-11-19T12:54:32;99948.44;;;13.93;86.37
14612;BME280;7392;52.078;11.650;2023-11-19T12:57:00;99945.84;;;13.90;87.01
14612;BME280;7392;52.078;11.650;2023-11-19T12:59:30;99951.53;;;13.78;86.90
14612;BME280;7392;52.078;11.650;2023-11-19T13:01:58;99953.47;;;13.73;87.42
14612;BME280;7392;52.078;11.650;2023-11-19T13:04:28;99946.53;;;13.65;87.82
14612;BME280;7392;52.078;11.650;2023-11-19T13:06:57;99944.06;;;13.58;88.41
14612;BME280;7392;52.078;11.650;2023-11-19T13:09:28;99938.88;;;13.53;89.56